sensor_id;sensor_type;location;lat;lon;timestamp;pressure;altitude;pressure_sealevel;temperature;humidity
2549;BME280;1284;53.520;10.248;2023-02-26T00:00:57;100911.25;;;2.63;85.55
2549;BME280;1284;53.520;10.248;2023-02-26T00:03:22;100912.91;;;2.59;85.69
2549;BME280;1284;53.520;10.248;2023-02-26T00:05:47;100909.19;;;2.60;85.51
2549;BME280;1284;53.520;10.248;2023-02-26T00:08:13;100921.88;;;2.63;85.39
2549;BME280;1284;53.520;10.248;2023-02-26T00:10:38;100925.84;;;2.66;84.99
2549;BME280;1284;53.520;10.248;2023-02-26T00:13:04;100921.13;;;2.63;84.71
2549;BME280;1284;53.520;10.248;2023-02-26T00:15:30;100927.31;;;2.58;84.82
2549;BME280;1284;53.520;10.248;2023-02-26T00:18:07;100929.78;;;2.55;84.77
2549;BME280;1284;53.520;10.248;2023-02-26T00:20:35;100933.91;;;2.47;85.37
2549;BME280;1284;53.520;10.248;2023-02-26T00:23:01;100942.13;;;2.46;85.51
2549;BME280;1284;53.520;10.248;2023-02-26T00:25:26;100935.56;;;2.43;85.39
2549;BME280;1284;53.520;10.248;2023-02-26T00:27:52;100939.00;;;2.30;85.56
2549;BME280;1284;53.520;10.248;2023-02-26T00:30:18;100941.06;;;2.33;85.63
2549;BME280;1284;53.520;10.248;2023-02-26T00:32:44;100947.94;;;2.34;85.72
2549;BME280;1284;53.520;10.248;2023-02-26T00:35:12;100942.84;;;2.38;85.79
2549;BME280;1284;53.520;10.248;2023-02-26T00:38:03;100952.38;;;2.39;85.34
2549;BME280;1284;53.520;10.248;2023-02-26T00:43:07;100959.28;;;2.40;85.17
2549;BME280;1284;53.520;10.248;2023-02-26T00:45:34;100956.53;;;2.45;84.92
2549;BME280;1284;53.520;10.248;2023-02-26T00:50:42;100967.53;;;2.38;84.81
2549;BME280;1284;53.520;10.248;2023-02-26T00:53:33;100976.66;;;2.32;85.16
2549;BME280;1284;53.520;10.248;2023-02-26T00:56:00;100978.94;;;2.39;84.72
2549;BME280;1284;53.520;10.248;2023-02-26T00:58:25;100988.00;;;2.38;84.48
2549;BME280;1284;53.520;10.248;2023-02-26T01:00:50;100984.50;;;2.24;84.85
2549;BME280;1284;53.520;10.248;2023-02-26T01:03:16;100983.44;;;2.25;85.11
2549;BME280;1284;53.520;10.248;2023-02-26T01:05:42;100993.78;;;2.26;84.80
2549;BME280;1284;53.520;10.248;2023-02-26T01:08:18;100986.56;;;2.27;84.85
2549;BME280;1284;53.520;10.248;2023-02-26T01:10:46;100987.16;;;2.24;84.68
2549;BME280;1284;53.520;10.248;2023-02-26T01:13:12;100990.91;;;2.23;84.67
2549;BME280;1284;53.520;10.248;2023-02-26T01:15:38;100994.84;;;2.25;84.13
2549;BME280;1284;53.520;10.248;2023-02-26T01:18:15;100994.66;;;2.22;84.29
2549;BME280;1284;53.520;10.248;2023-02-26T01:21:02;101000.31;;;2.15;84.63
2549;BME280;1284;53.520;10.248;2023-02-26T01:23:31;100995.28;;;2.14;84.44
2549;BME280;1284;53.520;10.248;2023-02-26T01:26:03;101003.84;;;2.11;84.66
2549;BME280;1284;53.520;10.248;2023-02-26T01:28:31;101005.41;;;2.12;84.74
2549;BME280;1284;53.520;10.248;2023-02-26T01:30:59;101003.22;;;2.00;84.45
2549;BME280;1284;53.520;10.248;2023-02-26T01:33:29;101003.63;;;2.07;84.65
2549;BME280;1284;53.520;10.248;2023-02-26T01:36:06;101014.19;;;2.12;84.09
2549;BME280;1284;53.520;10.248;2023-02-26T01:41:30;101019.34;;;2.22;83.98
2549;BME280;1284;53.520;10.248;2023-02-26T01:49:27;101018.56;;;1.84;81.79
2549;BME280;1284;53.520;10.248;2023-02-26T01:52:00;101020.78;;;1.96;83.04
2549;BME280;1284;53.520;10.248;2023-02-26T01:54:35;101023.91;;;2.03;82.82
2549;BME280;1284;53.520;10.248;2023-02-26T01:57:03;101022.66;;;2.14;82.01
2549;BME280;1284;53.520;10.248;2023-02-26T01:59:31;101024.59;;;2.09;81.72
2549;BME280;1284;53.520;10.248;2023-02-26T02:01:58;101024.09;;;2.07;80.71
2549;BME280;1284;53.520;10.248;2023-02-26T02:04:26;101026.66;;;2.12;80.61
2549;BME280;1284;53.520;10.248;2023-02-26T02:06:53;101029.41;;;2.07;79.53
2549;BME280;1284;53.520;10.248;2023-02-26T02:09:19;101031.13;;;2.16;79.80
2549;BME280;1284;53.520;10.248;2023-02-26T02:14:32;101043.44;;;2.26;78.10
2549;BME280;1284;53.520;10.248;2023-02-26T02:17:08;101039.00;;;2.21;77.94
2549;BME280;1284;53.520;10.248;2023-02-26T02:27:42;101063.69;;;2.22;76.25
2549;BME280;1284;53.520;10.248;2023-02-26T02:30:15;101064.84;;;2.16;76.14
2549;BME280;1284;53.520;10.248;2023-02-26T02:32:50;101063.00;;;2.16;75.98
2549;BME280;1284;53.520;10.248;2023-02-26T02:37:55;101078.03;;;2.21;75.87
2549;BME280;1284;53.520;10.248;2023-02-26T02:40:27;101082.22;;;2.27;75.73
2549;BME280;1284;53.520;10.248;2023-02-26T02:43:24;101084.59;;;2.28;75.15
2549;BME280;1284;53.520;10.248;2023-02-26T02:46:04;101084.66;;;2.23;75.13
2549;BME280;1284;53.520;10.248;2023-02-26T02:48:52;101091.06;;;2.22;75.11
2549;BME280;1284;53.520;10.248;2023-02-26T02:51:24;101095.56;;;2.22;75.41
2549;BME280;1284;53.520;10.248;2023-02-26T02:53:56;101101.47;;;2.19;75.04
2549;BME280;1284;53.520;10.248;2023-02-26T02:56:27;101102.66;;;2.08;75.09
2549;BME280;1284;53.520;10.248;2023-02-26T02:59:02;101114.94;;;2.04;75.22
2549;BME280;1284;53.520;10.248;2023-02-26T03:01:31;101106.97;;;2.04;75.73
2549;BME280;1284;53.520;10.248;2023-02-26T03:04:06;101123.19;;;2.02;75.38
2549;BME280;1284;53.520;10.248;2023-02-26T03:06:32;101113.94;;;2.00;75.61
2549;BME280;1284;53.520;10.248;2023-02-26T03:08:59;101127.97;;;2.05;75.53
2549;BME280;1284;53.520;10.248;2023-02-26T03:11:25;101127.72;;;2.02;75.49
2549;BME280;1284;53.520;10.248;2023-02-26T03:13:51;101136.75;;;2.01;75.37
2549;BME280;1284;53.520;10.248;2023-02-26T03:22:24;101147.00;;;1.65;77.66
2549;BME280;1284;53.520;10.248;2023-02-26T03:25:06;101146.28;;;1.59;78.29
2549;BME280;1284;53.520;10.248;2023-02-26T03:28:00;101142.91;;;1.54;78.80
2549;BME280;1284;53.520;10.248;2023-02-26T03:30:42;101146.25;;;1.41;79.74
2549;BME280;1284;53.520;10.248;2023-02-26T03:36:07;101148.00;;;1.50;79.68
2549;BME280;1284;53.520;10.248;2023-02-26T03:38:43;101151.94;;;1.53;80.05
2549;BME280;1284;53.520;10.248;2023-02-26T03:41:20;101151.66;;;1.54;80.03
2549;BME280;1284;53.520;10.248;2023-02-26T03:44:22;101156.34;;;1.62;80.21
2549;BME280;1284;53.520;10.248;2023-02-26T03:46:59;101154.75;;;1.61;80.02
2549;BME280;1284;53.520;10.248;2023-02-26T03:49:34;101170.91;;;1.65;80.09
2549;BME280;1284;53.520;10.248;2023-02-26T03:52:02;101172.31;;;1.57;79.71
2549;BME280;1284;53.520;10.248;2023-02-26T03:54:54;101175.47;;;1.59;80.52
2549;BME280;1284;53.520;10.248;2023-02-26T03:57:43;101185.03;;;1.60;80.01
2549;BME280;1284;53.520;10.248;2023-02-26T04:00:41;101189.75;;;1.63;79.83
2549;BME280;1284;53.520;10.248;2023-02-26T04:03:44;101190.34;;;1.60;79.94
2549;BME280;1284;53.520;10.248;2023-02-26T04:06:01;101194.28;;;1.63;80.30
2549;BME280;1284;53.520;10.248;2023-02-26T04:08:27;101201.47;;;1.62;80.19
2549;BME280;1284;53.520;10.248;2023-02-26T04:10:59;101208.84;;;1.65;79.37
2549;BME280;1284;53.520;10.248;2023-02-26T04:13:28;101199.94;;;1.56;79.62
2549;BME280;1284;53.520;10.248;2023-02-26T04:15:55;101203.63;;;1.55;80.00
2549;BME280;1284;53.520;10.248;2023-02-26T04:18:20;101208.41;;;1.58;79.50
2549;BME280;1284;53.520;10.248;2023-02-26T04:20:46;101209.28;;;1.49;80.07
2549;BME280;1284;53.520;10.248;2023-02-26T04:23:11;101216.25;;;1.40;79.96
2549;BME280;1284;53.520;10.248;2023-02-26T04:25:37;101217.50;;;1.47;80.24
2549;BME280;1284;53.520;10.248;2023-02-26T04:28:04;101217.00;;;1.45;80.10
2549;BME280;1284;53.520;10.248;2023-02-26T04:30:31;101214.84;;;1.47;80.01
2549;BME280;1284;53.520;10.248;2023-02-26T04:32:57;101227.53;;;1.55;79.81
2549;BME280;1284;53.520;10.248;2023-02-26T04:35:24;101223.09;;;1.46;79.75
2549;BME280;1284;53.520;10.248;2023-02-26T04:37:49;101229.88;;;1.28;80.89
2549;BME280;1284;53.520;10.248;2023-02-26T04:40:15;101233.53;;;1.37;80.90
2549;BME280;1284;53.520;10.248;2023-02-26T04:42:41;101233.28;;;1.34;80.99
2549;BME280;1284;53.520;10.248;2023-02-26T04:45:07;101244.16;;;1.37;80.72
2549;BME280;1284;53.520;10.248;2023-02-26T04:47:35;101239.31;;;1.44;80.56
2549;BME280;1284;53.520;10.248;2023-02-26T04:50:02;101242.53;;;1.41;80.38
2549;BME280;1284;53.520;10.248;2023-02-26T04:52:29;101244.84;;;1.48;80.05
2549;BME280;1284;53.520;10.248;2023-02-26T04:54:55;101252.63;;;1.39;80.67
2549;BME280;1284;53.520;10.248;2023-02-26T04:57:21;101254.72;;;1.42;80.33
2549;BME280;1284;53.520;10.248;2023-02-26T04:59:46;101260.53;;;1.44;80.19
2549;BME280;1284;53.520;10.248;2023-02-26T05:02:12;101267.97;;;1.42;79.92
2549;BME280;1284;53.520;10.248;2023-02-26T05:04:40;101271.44;;;1.38;80.01
2549;BME280;1284;53.520;10.248;2023-02-26T05:07:06;101277.03;;;1.36;80.05
2549;BME280;1284;53.520;10.248;2023-02-26T05:09:31;101278.94;;;1.31;80.43
2549;BME280;1284;53.520;10.248;2023-02-26T05:11:57;101271.81;;;1.26;80.71
2549;BME280;1284;53.520;10.248;2023-02-26T05:14:22;101279.78;;;1.26;80.48
2549;BME280;1284;53.520;10.248;2023-02-26T05:16:48;101283.97;;;1.32;79.78
2549;BME280;1284;53.520;10.248;2023-02-26T05:19:14;101296.19;;;1.33;79.75
2549;BME280;1284;53.520;10.248;2023-02-26T05:24:25;101300.56;;;1.14;80.32
2549;BME280;1284;53.520;10.248;2023-02-26T05:26:51;101301.34;;;1.15;80.27
2549;BME280;1284;53.520;10.248;2023-02-26T05:29:17;101295.72;;;1.21;80.40
2549;BME280;1284;53.520;10.248;2023-02-26T05:31:43;101301.31;;;1.20;80.19
2549;BME280;1284;53.520;10.248;2023-02-26T05:34:09;101294.97;;;1.16;80.17
2549;BME280;1284;53.520;10.248;2023-02-26T05:36:34;101295.84;;;1.06;80.74
2549;BME280;1284;53.520;10.248;2023-02-26T05:39:00;101303.75;;;1.11;80.67
2549;BME280;1284;53.520;10.248;2023-02-26T05:41:25;101292.84;;;1.18;80.10
2549;BME280;1284;53.520;10.248;2023-02-26T05:43:51;101304.78;;;1.15;80.28
2549;BME280;1284;53.520;10.248;2023-02-26T05:46:16;101321.00;;;1.09;80.91
2549;BME280;1284;53.520;10.248;2023-02-26T05:48:42;101318.34;;;1.09;80.83
2549;BME280;1284;53.520;10.248;2023-02-26T05:51:07;101321.44;;;1.21;80.67
2549;BME280;1284;53.520;10.248;2023-02-26T05:53:34;101321.97;;;1.23;80.00
2549;BME280;1284;53.520;10.248;2023-02-26T05:55:59;101333.94;;;1.15;80.16
2549;BME280;1284;53.520;10.248;2023-02-26T05:58:25;101344.03;;;1.13;80.23
2549;BME280;1284;53.520;10.248;2023-02-26T06:00:51;101344.66;;;1.00;80.61
2549;BME280;1284;53.520;10.248;2023-02-26T06:03:16;101344.69;;;0.90;80.85
2549;BME280;1284;53.520;10.248;2023-02-26T06:05:42;101350.28;;;0.83;81.53
2549;BME280;1284;53.520;10.248;2023-02-26T06:08:07;101353.97;;;0.93;81.10
2549;BME280;1284;53.520;10.248;2023-02-26T06:10:33;101346.75;;;1.03;80.75
2549;BME280;1284;53.520;10.248;2023-02-26T06:12:58;101349.97;;;1.00;80.84
2549;BME280;1284;53.520;10.248;2023-02-26T06:15:24;101356.31;;;1.04;80.38
2549;BME280;1284;53.520;10.248;2023-02-26T06:17:49;101363.16;;;1.10;79.96
2549;BME280;1284;53.520;10.248;2023-02-26T06:20:15;101370.84;;;1.07;80.67
2549;BME280;1284;53.520;10.248;2023-02-26T06:22:41;101365.28;;;1.08;80.34
2549;BME280;1284;53.520;10.248;2023-02-26T06:25:06;101376.16;;;1.07;80.19
2549;BME280;1284;53.520;10.248;2023-02-26T06:27:32;101384.91;;;1.07;80.17
2549;BME280;1284;53.520;10.248;2023-02-26T06:29:57;101375.09;;;1.08;80.51
2549;BME280;1284;53.520;10.248;2023-02-26T06:32:23;101379.94;;;0.96;80.30
2549;BME280;1284;53.520;10.248;2023-02-26T06:34:48;101390.28;;;0.92;80.72
2549;BME280;1284;53.520;10.248;2023-02-26T06:37:14;101399.81;;;0.98;80.97
2549;BME280;1284;53.520;10.248;2023-02-26T06:39:43;101405.63;;;0.95;81.03
2549;BME280;1284;53.520;10.248;2023-02-26T06:42:08;101402.78;;;0.81;80.89
2549;BME280;1284;53.520;10.248;2023-02-26T06:44:33;101404.91;;;0.84;81.03
2549;BME280;1284;53.520;10.248;2023-02-26T06:46:59;101413.59;;;0.95;80.38
2549;BME280;1284;53.520;10.248;2023-02-26T06:49:25;101418.31;;;1.03;80.53
2549;BME280;1284;53.520;10.248;2023-02-26T06:51:50;101424.47;;;0.93;81.11
2549;BME280;1284;53.520;10.248;2023-02-26T06:54:16;101425.50;;;0.98;81.20
2549;BME280;1284;53.520;10.248;2023-02-26T06:56:41;101426.53;;;1.07;81.17
2549;BME280;1284;53.520;10.248;2023-02-26T06:59:07;101431.03;;;1.11;80.40
2549;BME280;1284;53.520;10.248;2023-02-26T07:01:32;101436.56;;;1.20;80.53
2549;BME280;1284;53.520;10.248;2023-02-26T07:03:58;101442.47;;;1.02;80.79
2549;BME280;1284;53.520;10.248;2023-02-26T07:06:23;101435.94;;;0.69;81.89
2549;BME280;1284;53.520;10.248;2023-02-26T07:08:49;101434.84;;;0.80;82.23
2549;BME280;1284;53.520;10.248;2023-02-26T07:11:14;101444.88;;;0.98;81.85
2549;BME280;1284;53.520;10.248;2023-02-26T07:13:40;101449.31;;;1.13;81.84
2549;BME280;1284;53.520;10.248;2023-02-26T07:16:06;101458.03;;;1.18;81.26
2549;BME280;1284;53.520;10.248;2023-02-26T07:18:33;101457.25;;;1.18;80.95
2549;BME280;1284;53.520;10.248;2023-02-26T07:20:59;101465.97;;;1.18;81.79
2549;BME280;1284;53.520;10.248;2023-02-26T07:23:24;101462.28;;;1.19;81.88
2549;BME280;1284;53.520;10.248;2023-02-26T07:25:50;101464.88;;;1.29;81.28
2549;BME280;1284;53.520;10.248;2023-02-26T07:28:15;101470.41;;;1.38;81.44
2549;BME280;1284;53.520;10.248;2023-02-26T07:30:40;101483.41;;;1.34;82.10
2549;BME280;1284;53.520;10.248;2023-02-26T07:33:07;101490.28;;;1.40;82.17
2549;BME280;1284;53.520;10.248;2023-02-26T07:35:33;101488.72;;;1.39;82.64
2549;BME280;1284;53.520;10.248;2023-02-26T07:37:59;101495.41;;;1.70;82.46
2549;BME280;1284;53.520;10.248;2023-02-26T07:40:25;101494.31;;;1.81;80.70
2549;BME280;1284;53.520;10.248;2023-02-26T07:42:50;101496.44;;;1.79;81.19
2549;BME280;1284;53.520;10.248;2023-02-26T07:45:17;101505.59;;;2.02;80.99
2549;BME280;1284;53.520;10.248;2023-02-26T07:47:47;101508.84;;;2.28;80.83
2549;BME280;1284;53.520;10.248;2023-02-26T07:50:13;101504.38;;;2.52;80.10
2549;BME280;1284;53.520;10.248;2023-02-26T07:52:39;101502.50;;;2.81;79.46
2549;BME280;1284;53.520;10.248;2023-02-26T07:55:05;101510.38;;;3.15;78.38
2549;BME280;1284;53.520;10.248;2023-02-26T07:57:30;101505.78;;;3.44;77.00
2549;BME280;1284;53.520;10.248;2023-02-26T07:59:55;101510.56;;;3.65;76.01
2549;BME280;1284;53.520;10.248;2023-02-26T08:02:21;101520.91;;;3.86;74.60
2549;BME280;1284;53.520;10.248;2023-02-26T08:04:48;101518.53;;;4.03;73.19
2549;BME280;1284;53.520;10.248;2023-02-26T08:07:13;101526.44;;;4.08;72.22
2549;BME280;1284;53.520;10.248;2023-02-26T08:09:39;101526.00;;;4.19;70.42
2549;BME280;1284;53.520;10.248;2023-02-26T08:12:04;101530.72;;;4.41;70.56
2549;BME280;1284;53.520;10.248;2023-02-26T08:14:30;101529.59;;;4.61;70.42
2549;BME280;1284;53.520;10.248;2023-02-26T08:16:55;101526.66;;;4.76;69.30
2549;BME280;1284;53.520;10.248;2023-02-26T08:19:21;101530.25;;;4.98;68.81
2549;BME280;1284;53.520;10.248;2023-02-26T08:21:46;101529.88;;;5.18;68.18
2549;BME280;1284;53.520;10.248;2023-02-26T08:24:12;101528.97;;;5.23;67.37
2549;BME280;1284;53.520;10.248;2023-02-26T08:26:37;101529.06;;;5.31;66.89
2549;BME280;1284;53.520;10.248;2023-02-26T08:29:03;101535.91;;;5.37;67.26
2549;BME280;1284;53.520;10.248;2023-02-26T08:31:32;101548.81;;;5.58;67.14
2549;BME280;1284;53.520;10.248;2023-02-26T08:33:59;101547.31;;;5.79;66.30
2549;BME280;1284;53.520;10.248;2023-02-26T08:36:24;101558.47;;;5.94;66.06
2549;BME280;1284;53.520;10.248;2023-02-26T08:38:53;101564.97;;;6.15;64.95
2549;BME280;1284;53.520;10.248;2023-02-26T08:41:18;101571.06;;;6.29;64.17
2549;BME280;1284;53.520;10.248;2023-02-26T08:43:44;101573.31;;;6.36;63.74
2549;BME280;1284;53.520;10.248;2023-02-26T08:46:09;101580.56;;;6.58;63.95
2549;BME280;1284;53.520;10.248;2023-02-26T08:48:35;101591.19;;;6.71;63.18
2549;BME280;1284;53.520;10.248;2023-02-26T08:51:00;101590.09;;;6.72;61.54
2549;BME280;1284;53.520;10.248;2023-02-26T08:53:26;101595.31;;;6.77;62.16
2549;BME280;1284;53.520;10.248;2023-02-26T08:55:52;101602.50;;;6.90;61.26
2549;BME280;1284;53.520;10.248;2023-02-26T08:58:18;101602.34;;;6.95;60.93
2549;BME280;1284;53.520;10.248;2023-02-26T09:00:44;101606.22;;;7.11;60.82
2549;BME280;1284;53.520;10.248;2023-02-26T09:03:10;101594.75;;;7.19;60.30
2549;BME280;1284;53.520;10.248;2023-02-26T09:05:36;101606.94;;;7.34;59.84
2549;BME280;1284;53.520;10.248;2023-02-26T09:08:03;101615.38;;;7.50;59.23
2549;BME280;1284;53.520;10.248;2023-02-26T09:10:29;101615.38;;;7.50;57.62
2549;BME280;1284;53.520;10.248;2023-02-26T09:12:54;101623.88;;;7.52;56.73
2549;BME280;1284;53.520;10.248;2023-02-26T09:15:20;101637.69;;;7.76;56.69
2549;BME280;1284;53.520;10.248;2023-02-26T09:17:47;101640.06;;;7.86;55.08
2549;BME280;1284;53.520;10.248;2023-02-26T09:20:13;101637.75;;;8.10;55.00
2549;BME280;1284;53.520;10.248;2023-02-26T09:22:40;101640.31;;;8.23;54.74
2549;BME280;1284;53.520;10.248;2023-02-26T09:25:06;101642.38;;;8.27;53.61
2549;BME280;1284;53.520;10.248;2023-02-26T09:27:32;101652.03;;;8.45;53.64
2549;BME280;1284;53.520;10.248;2023-02-26T09:29:57;101656.28;;;8.54;52.92
2549;BME280;1284;53.520;10.248;2023-02-26T09:32:23;101656.31;;;8.63;52.95
2549;BME280;1284;53.520;10.248;2023-02-26T09:34:50;101653.78;;;8.66;51.56
2549;BME280;1284;53.520;10.248;2023-02-26T09:37:15;101651.25;;;8.61;51.95
2549;BME280;1284;53.520;10.248;2023-02-26T09:39:41;101656.63;;;8.53;50.22
2549;BME280;1284;53.520;10.248;2023-02-26T09:42:32;101659.28;;;8.36;49.71
2549;BME280;1284;53.520;10.248;2023-02-26T09:45:02;101671.59;;;8.54;50.13
2549;BME280;1284;53.520;10.248;2023-02-26T09:47:54;101665.28;;;8.58;50.23
2549;BME280;1284;53.520;10.248;2023-02-26T09:50:27;101669.56;;;8.59;50.44
2549;BME280;1284;53.520;10.248;2023-02-26T09:53:04;101675.41;;;8.53;50.01
2549;BME280;1284;53.520;10.248;2023-02-26T09:55:40;101670.19;;;8.65;49.55
2549;BME280;1284;53.520;10.248;2023-02-26T09:58:21;101665.00;;;8.51;49.55
2549;BME280;1284;53.520;10.248;2023-02-26T10:01:10;101669.41;;;8.56;49.51
2549;BME280;1284;53.520;10.248;2023-02-26T10:03:53;101675.88;;;8.46;50.01
2549;BME280;1284;53.520;10.248;2023-02-26T10:06:26;101682.81;;;8.47;49.32
2549;BME280;1284;53.520;10.248;2023-02-26T10:11:57;101676.97;;;8.54;48.52
2549;BME280;1284;53.520;10.248;2023-02-26T10:14:50;101679.84;;;8.74;48.43
2549;BME280;1284;53.520;10.248;2023-02-26T10:17:34;101674.56;;;8.27;47.38
2549;BME280;1284;53.520;10.248;2023-02-26T10:20:14;101679.31;;;8.38;48.96
2549;BME280;1284;53.520;10.248;2023-02-26T10:23:04;101678.72;;;8.58;48.09
2549;BME280;1284;53.520;10.248;2023-02-26T10:36:57;101691.06;;;8.59;48.61
2549;BME280;1284;53.520;10.248;2023-02-26T10:42:46;101703.19;;;8.48;50.29
2549;BME280;1284;53.520;10.248;2023-02-26T10:45:27;101717.84;;;8.34;49.20
2549;BME280;1284;53.520;10.248;2023-02-26T10:50:51;101723.75;;;8.05;50.34
2549;BME280;1284;53.520;10.248;2023-02-26T10:53:17;101723.00;;;7.74;51.51
2549;BME280;1284;53.520;10.248;2023-02-26T10:55:48;101721.41;;;7.73;51.27
2549;BME280;1284;53.520;10.248;2023-02-26T10:58:25;101716.44;;;7.58;51.69
2549;BME280;1284;53.520;10.248;2023-02-26T11:00:53;101720.91;;;7.71;51.84
2549;BME280;1284;53.520;10.248;2023-02-26T11:03:28;101710.56;;;7.86;51.70
2549;BME280;1284;53.520;10.248;2023-02-26T11:05:55;101719.75;;;7.85;51.53
2549;BME280;1284;53.520;10.248;2023-02-26T11:08:31;101723.06;;;7.91;51.61
2549;BME280;1284;53.520;10.248;2023-02-26T11:11:02;101711.59;;;7.99;52.17
2549;BME280;1284;53.520;10.248;2023-02-26T11:13:29;101717.50;;;8.27;52.39
2549;BME280;1284;53.520;10.248;2023-02-26T11:15:57;101718.75;;;8.20;51.67
2549;BME280;1284;53.520;10.248;2023-02-26T11:18:39;101719.84;;;8.19;51.97
2549;BME280;1284;53.520;10.248;2023-02-26T11:21:06;101718.19;;;7.93;51.77
2549;BME280;1284;53.520;10.248;2023-02-26T11:23:33;101718.19;;;8.01;52.05
2549;BME280;1284;53.520;10.248;2023-02-26T11:26:04;101712.66;;;7.98;51.74
2549;BME280;1284;53.520;10.248;2023-02-26T11:28:35;101728.31;;;7.65;52.69
2549;BME280;1284;53.520;10.248;2023-02-26T11:31:06;101717.97;;;7.81;53.67
2549;BME280;1284;53.520;10.248;2023-02-26T11:33:37;101718.31;;;7.88;53.47
2549;BME280;1284;53.520;10.248;2023-02-26T11:36:11;101725.66;;;8.13;52.45
2549;BME280;1284;53.520;10.248;2023-02-26T11:38:38;101730.72;;;8.23;52.79
2549;BME280;1284;53.520;10.248;2023-02-26T11:41:05;101723.53;;;8.32;52.10
2549;BME280;1284;53.520;10.248;2023-02-26T11:44:01;101739.81;;;8.36;52.72
2549;BME280;1284;53.520;10.248;2023-02-26T11:46:29;101734.75;;;8.43;52.44
2549;BME280;1284;53.520;10.248;2023-02-26T11:51:24;101727.84;;;8.11;51.64
2549;BME280;1284;53.520;10.248;2023-02-26T11:53:52;101726.28;;;8.10;52.07
2549;BME280;1284;53.520;10.248;2023-02-26T11:56:38;101719.53;;;8.21;52.69
2549;BME280;1284;53.520;10.248;2023-02-26T11:59:24;101720.47;;;8.16;51.71
2549;BME280;1284;53.520;10.248;2023-02-26T12:01:51;101726.91;;;8.07;52.74
2549;BME280;1284;53.520;10.248;2023-02-26T12:04:20;101721.00;;;8.27;52.88
2549;BME280;1284;53.520;10.248;2023-02-26T12:06:48;101714.44;;;8.11;53.28
2549;BME280;1284;53.520;10.248;2023-02-26T12:09:15;101706.59;;;8.14;53.22
2549;BME280;1284;53.520;10.248;2023-02-26T12:12:08;101714.53;;;8.28;53.61
2549;BME280;1284;53.520;10.248;2023-02-26T12:17:58;101727.94;;;8.28;52.46
2549;BME280;1284;53.520;10.248;2023-02-26T12:20:58;101730.09;;;8.09;53.30
2549;BME280;1284;53.520;10.248;2023-02-26T12:26:05;101725.19;;;8.19;55.86
2549;BME280;1284;53.520;10.248;2023-02-26T12:28:37;101734.97;;;8.15;57.24
2549;BME280;1284;53.520;10.248;2023-02-26T12:31:28;101727.88;;;8.19;56.42
2549;BME280;1284;53.520;10.248;2023-02-26T12:34:20;101733.63;;;7.87;58.41
2549;BME280;1284;53.520;10.248;2023-02-26T12:37:14;101740.53;;;7.80;59.03
2549;BME280;1284;53.520;10.248;2023-02-26T12:53:52;101729.19;;;8.31;57.17
2549;BME280;1284;53.520;10.248;2023-02-26T13:05:16;101744.75;;;8.59;56.89
2549;BME280;1284;53.520;10.248;2023-02-26T13:07:50;101740.16;;;8.77;55.97
2549;BME280;1284;53.520;10.248;2023-02-26T13:10:31;101736.84;;;8.88;55.53
2549;BME280;1284;53.520;10.248;2023-02-26T13:13:32;101736.84;;;8.97;55.85
2549;BME280;1284;53.520;10.248;2023-02-26T13:16:21;101730.22;;;9.12;55.06
2549;BME280;1284;53.520;10.248;2023-02-26T13:22:28;101726.69;;;9.28;54.64
2549;BME280;1284;53.520;10.248;2023-02-26T13:25:05;101735.38;;;9.42;54.72
2549;BME280;1284;53.520;10.248;2023-02-26T13:27:38;101742.16;;;9.48;53.88
2549;BME280;1284;53.520;10.248;2023-02-26T13:32:38;101735.25;;;9.22;54.43
2549;BME280;1284;53.520;10.248;2023-02-26T13:35:24;101724.84;;;9.12;53.52
2549;BME280;1284;53.520;10.248;2023-02-26T13:46:18;101734.63;;;8.99;53.13
2549;BME280;1284;53.520;10.248;2023-02-26T13:51:36;101727.38;;;8.82;52.08
2549;BME280;1284;53.520;10.248;2023-02-26T13:54:47;101738.59;;;8.93;52.04
2549;BME280;1284;53.520;10.248;2023-02-26T13:56:53;101738.56;;;8.67;52.53
2549;BME280;1284;53.520;10.248;2023-02-26T13:59:35;101745.06;;;8.75;52.19
2549;BME280;1284;53.520;10.248;2023-02-26T14:05:26;101740.16;;;8.51;53.36
2549;BME280;1284;53.520;10.248;2023-02-26T14:08:08;101739.81;;;8.36;54.00
2549;BME280;1284;53.520;10.248;2023-02-26T14:10:53;101732.06;;;8.34;54.01
2549;BME280;1284;53.520;10.248;2023-02-26T14:13:39;101740.28;;;8.46;53.92
2549;BME280;1284;53.520;10.248;2023-02-26T14:26:50;101741.91;;;8.90;54.13
2549;BME280;1284;53.520;10.248;2023-02-26T14:29:43;101748.41;;;8.80;54.03
2549;BME280;1284;53.520;10.248;2023-02-26T14:35:38;101753.59;;;8.85;53.96
2549;BME280;1284;53.520;10.248;2023-02-26T14:38:12;101753.75;;;8.80;54.73
2549;BME280;1284;53.520;10.248;2023-02-26T14:40:46;101759.13;;;8.80;54.63
2549;BME280;1284;53.520;10.248;2023-02-26T14:43:22;101751.22;;;8.58;55.38
2549;BME280;1284;53.520;10.248;2023-02-26T14:45:53;101758.03;;;8.73;55.52
2549;BME280;1284;53.520;10.248;2023-02-26T14:48:21;101749.19;;;8.89;55.85
2549;BME280;1284;53.520;10.248;2023-02-26T14:56:53;101754.53;;;9.06;54.51
2549;BME280;1284;53.520;10.248;2023-02-26T15:02:27;101749.13;;;9.41;53.63
2549;BME280;1284;53.520;10.248;2023-02-26T15:15:41;101752.28;;;9.43;52.92
2549;BME280;1284;53.520;10.248;2023-02-26T15:18:30;101757.53;;;9.31;52.77
2549;BME280;1284;53.520;10.248;2023-02-26T15:25:59;101772.72;;;8.92;54.21
2549;BME280;1284;53.520;10.248;2023-02-26T15:28:37;101775.25;;;8.89;54.46
2549;BME280;1284;53.520;10.248;2023-02-26T15:31:05;101768.91;;;8.59;54.75
2549;BME280;1284;53.520;10.248;2023-02-26T15:33:32;101776.44;;;8.49;55.33
2549;BME280;1284;53.520;10.248;2023-02-26T15:35:59;101780.91;;;8.53;55.19
2549;BME280;1284;53.520;10.248;2023-02-26T15:38:25;101780.13;;;8.61;54.72
2549;BME280;1284;53.520;10.248;2023-02-26T15:40:54;101778.81;;;8.50;54.86
2549;BME280;1284;53.520;10.248;2023-02-26T15:43:26;101787.28;;;8.27;55.13
2549;BME280;1284;53.520;10.248;2023-02-26T15:45:55;101778.13;;;8.28;55.41
2549;BME280;1284;53.520;10.248;2023-02-26T15:48:30;101786.50;;;8.26;54.96
2549;BME280;1284;53.520;10.248;2023-02-26T15:51:00;101778.16;;;8.36;54.92
2549;BME280;1284;53.520;10.248;2023-02-26T15:53:33;101781.13;;;8.26;55.69
2549;BME280;1284;53.520;10.248;2023-02-26T15:56:05;101778.88;;;8.19;55.55
2549;BME280;1284;53.520;10.248;2023-02-26T15:58:35;101784.66;;;8.13;56.04